createdAt,value
2022-10-16T00:00:01.043Z,62.5
2022-10-16T00:05:01.198Z,63.0
2022-10-16T00:10:01.299Z,62.9
2022-10-16T00:15:01.032Z,64.0
2022-10-16T00:20:01.031Z,64.8
2022-10-16T00:25:01.115Z,64.6
2022-10-16T00:30:01.082Z,64.0
2022-10-16T00:35:02.182Z,63.7
2022-10-16T00:40:01.129Z,63.3
2022-10-16T00:45:01.260Z,62.6
2022-10-16T01:10:01.222Z,59.6
2022-10-16T01:30:06.647Z,58.2
2022-10-16T01:35:01.665Z,57.5
2022-10-16T01:40:01.478Z,57.1
2022-10-16T01:45:01.608Z,66.9
2022-10-16T01:50:01.876Z,65.6
2022-10-16T01:55:01.576Z,66.2
2022-10-16T02:00:01.836Z,67.0
2022-10-16T02:05:01.543Z,68.1
2022-10-16T02:10:01.503Z,61.2
2022-10-16T02:15:02.566Z,62.5
2022-10-16T02:20:01.471Z,63.2
2022-10-16T02:25:01.501Z,61.8
2022-10-16T02:30:01.458Z,60.8
2022-10-16T02:35:02.891Z,60.4
2022-10-16T02:40:06.425Z,58.9
2022-10-16T02:45:01.548Z,58.0
2022-10-16T02:50:01.433Z,59.0
2022-10-16T02:55:02.923Z,59.6
2022-10-16T03:00:06.785Z,60.9
2022-10-16T03:05:01.467Z,60.6
2022-10-16T03:10:01.755Z,60.0
2022-10-16T03:15:01.553Z,59.8
2022-10-16T04:20:02.491Z,58.8
2022-10-16T04:25:02.497Z,58.3
2022-10-16T04:30:01.403Z,62.7
2022-10-16T04:35:01.416Z,65.4
2022-10-16T05:00:00.905Z,60.6
2022-10-16T05:05:00.747Z,60.2
2022-10-16T05:10:00.889Z,61.9
2022-10-16T05:15:06.772Z,62.4
2022-10-16T05:20:00.650Z,62.8
2022-10-16T05:25:00.777Z,63.6
2022-10-16T05:30:00.643Z,66.0
2022-10-16T05:35:00.726Z,66.5
2022-10-16T05:40:00.673Z,67.4
2022-10-16T05:45:05.922Z,66.4
2022-10-16T07:30:06.670Z,57.4
2022-10-16T09:50:01.271Z,41.0
2022-10-16T09:55:01.197Z,39.9
2022-10-16T10:00:01.129Z,41.4
2022-10-16T11:00:01.925Z,47.4
2022-10-16T11:20:02.071Z,42.6
2022-10-16T11:25:02.056Z,43.1
2022-10-16T11:40:06.081Z,38.0
2022-10-16T11:45:01.115Z,40.5
2022-10-16T12:00:01.833Z,43.0
2022-10-16T12:05:01.436Z,45.3
2022-10-16T12:10:01.694Z,44.5
2022-10-16T12:15:17.716Z,46.3
2022-10-16T12:20:01.387Z,46.0
2022-10-16T12:40:01.119Z,39.8
2022-10-16T13:00:01.448Z,40.4
2022-10-16T13:05:01.375Z,43.2
2022-10-16T13:20:01.741Z,42.2
2022-10-16T13:25:01.629Z,39.5
2022-10-16T13:40:01.042Z,41.6
2022-10-16T13:45:00.940Z,43.6
2022-10-16T13:50:00.880Z,42.9
2022-10-16T13:55:01.968Z,42.5
2022-10-16T14:00:00.887Z,42.9
2022-10-16T14:05:01.931Z,44.5
2022-10-16T14:10:05.971Z,45.8
2022-10-16T14:15:00.960Z,47.0
2022-10-16T14:20:02.880Z,49.2
2022-10-16T14:25:00.933Z,48.2
2022-10-16T14:30:00.815Z,46.8
2022-10-16T14:50:01.752Z,44.6
2022-10-16T14:55:02.121Z,49.2
2022-10-16T15:00:01.575Z,51.9
2022-10-16T15:05:02.709Z,59.0
2022-10-16T15:20:01.223Z,52.2
2022-10-16T15:25:01.160Z,54.5
2022-10-16T15:30:01.067Z,56.5
2022-10-16T15:35:01.176Z,56.1
2022-10-16T15:40:01.128Z,56.4
2022-10-16T15:45:01.129Z,56.9
2022-10-16T15:50:01.061Z,56.3
2022-10-16T15:55:01.084Z,56.6
2022-10-16T16:00:01.347Z,56.9
2022-10-16T16:05:01.652Z,57.0
2022-10-16T16:10:01.043Z,57.7
2022-10-16T16:15:02.134Z,58.8
2022-10-16T16:20:01.036Z,58.1
2022-10-16T16:25:01.075Z,58.8
2022-10-16T16:30:01.011Z,59.7
2022-10-16T16:35:01.343Z,60.0
2022-10-16T16:40:01.038Z,59.3
2022-10-16T16:45:01.136Z,59.1
2022-10-16T16:50:01.010Z,58.2
2022-10-16T16:55:01.595Z,57.8
2022-10-16T17:00:01.032Z,58.6
2022-10-16T17:05:01.447Z,59.2
2022-10-16T17:10:01.010Z,58.8
2022-10-16T17:15:01.127Z,59.1
2022-10-16T17:20:01.026Z,58.6
2022-10-16T17:25:01.267Z,57.0
2022-10-16T17:30:01.086Z,55.8
2022-10-16T17:35:01.135Z,56.0
2022-10-16T17:40:01.377Z,55.6
2022-10-16T17:45:01.072Z,59.6
2022-10-16T17:50:01.089Z,60.4
2022-10-16T17:55:01.070Z,63.2
2022-10-16T18:00:01.038Z,64.4
2022-10-16T18:05:03.066Z,64.7
2022-10-16T18:10:10.967Z,60.3
2022-10-16T18:15:01.085Z,60.4
2022-10-16T18:20:01.043Z,58.7
2022-10-16T18:25:01.086Z,57.9
2022-10-16T18:30:01.030Z,63.6
2022-10-16T18:35:01.189Z,65.1
2022-10-16T18:40:01.045Z,66.0
2022-10-16T18:45:01.094Z,68.8
2022-10-16T18:50:01.034Z,70.8
2022-10-16T18:55:01.096Z,65.9
2022-10-16T19:00:01.344Z,65.1
2022-10-16T19:05:02.534Z,64.8
2022-10-16T19:10:01.339Z,63.6
2022-10-16T19:15:02.151Z,62.3
2022-10-16T19:20:01.061Z,63.8
2022-10-16T19:25:01.102Z,65.6
2022-10-16T19:30:01.144Z,66.6
2022-10-16T19:35:01.161Z,67.0
2022-10-16T19:40:01.070Z,68.3
2022-10-16T19:45:01.119Z,67.4
2022-10-16T20:10:01.611Z,66.6
2022-10-16T20:15:01.593Z,68.3
2022-10-16T20:20:01.467Z,68.8
2022-10-16T20:25:01.536Z,74.7
2022-10-16T20:30:01.489Z,73.2
2022-10-16T20:35:03.097Z,73.8
2022-10-16T20:45:01.651Z,73.8
2022-10-16T20:50:01.402Z,69.4
2022-10-16T20:55:01.436Z,71.4
2022-10-16T21:00:02.389Z,70.8
2022-10-16T21:05:01.543Z,69.8
2022-10-16T21:10:01.469Z,75.1
2022-10-16T21:15:16.634Z,74.5
2022-10-16T21:20:01.496Z,72.8
2022-10-16T21:30:01.568Z,73.6
2022-10-16T21:35:01.528Z,68.8
2022-10-16T21:40:01.727Z,69.8
2022-10-16T21:45:01.478Z,70.2
2022-10-16T21:50:01.432Z,71.8
2022-10-16T21:55:01.547Z,74.4
2022-10-16T22:00:03.101Z,76.1
2022-10-16T22:05:01.506Z,78.4
2022-10-16T22:10:01.425Z,80.1
2022-10-16T22:15:02.671Z,81.3
2022-10-16T22:20:01.400Z,80.0
2022-10-16T22:25:01.464Z,77.7
2022-10-16T22:30:01.710Z,74.8
2022-10-16T22:35:01.497Z,74.0
2022-10-16T22:40:01.375Z,71.5
2022-10-16T22:45:02.060Z,70.6
2022-10-16T22:50:01.394Z,71.4
2022-10-16T22:55:01.440Z,72.9
2022-10-16T23:00:01.361Z,72.8
2022-10-16T23:05:06.528Z,81.4
2022-10-16T23:15:01.445Z,85.7
2022-10-16T23:20:01.739Z,84.1
2022-10-16T23:25:01.468Z,83.6
2022-10-16T23:30:01.313Z,77.0
2022-10-16T23:35:01.774Z,73.6
2022-10-16T23:40:01.315Z,75.0
2022-10-16T23:45:01.395Z,77.0
2022-10-16T23:50:01.300Z,80.3
2022-10-16T23:55:01.365Z,80.5
